sensor_id;sensor_type;location;lat;lon;timestamp;temperature;humidity
70151;DHT22;57517;43.562;19.540;2024-02-21T00:02:18;205.20;2252.80
70151;DHT22;57517;43.562;19.540;2024-02-21T00:04:44;205.20;2252.80
70151;DHT22;57517;43.562;19.540;2024-02-21T00:07:10;205.30;2252.80
70151;DHT22;57517;43.562;19.540;2024-02-21T00:09:36;205.20;2252.80
70151;DHT22;57517;43.562;19.540;2024-02-21T00:12:02;205.30;2252.80
70151;DHT22;57517;43.562;19.540;2024-02-21T00:14:28;205.20;2252.80
70151;DHT22;57517;43.562;19.540;2024-02-21T00:16:54;205.30;2252.80
70151;DHT22;57517;43.562;19.540;2024-02-21T00:19:20;205.30;2252.80
70151;DHT22;57517;43.562;19.540;2024-02-21T00:21:46;204.90;2252.80
70151;DHT22;57517;43.562;19.540;2024-02-21T00:24:12;205.10;2252.80
70151;DHT22;57517;43.562;19.540;2024-02-21T00:26:38;205.10;2252.80
70151;DHT22;57517;43.562;19.540;2024-02-21T00:29:03;205.20;2252.80
70151;DHT22;57517;43.562;19.540;2024-02-21T00:31:31;205.20;2252.80
70151;DHT22;57517;43.562;19.540;2024-02-21T00:33:56;205.30;2252.80
70151;DHT22;57517;43.562;19.540;2024-02-21T00:36:23;205.30;2252.80
70151;DHT22;57517;43.562;19.540;2024-02-21T00:38:49;205.20;2252.80
70151;DHT22;57517;43.562;19.540;2024-02-21T00:41:15;205.20;2252.80
70151;DHT22;57517;43.562;19.540;2024-02-21T00:43:41;205.20;2252.80
70151;DHT22;57517;43.562;19.540;2024-02-21T00:46:07;205.30;2252.80
70151;DHT22;57517;43.562;19.540;2024-02-21T00:48:33;205.40;2252.80
70151;DHT22;57517;43.562;19.540;2024-02-21T00:50:59;205.30;2252.80
70151;DHT22;57517;43.562;19.540;2024-02-21T00:53:25;205.20;2252.80
70151;DHT22;57517;43.562;19.540;2024-02-21T00:55:51;205.20;2252.80
70151;DHT22;57517;43.562;19.540;2024-02-21T00:58:17;205.20;2252.80
70151;DHT22;57517;43.562;19.540;2024-02-21T01:00:42;205.20;2252.80
70151;DHT22;57517;43.562;19.540;2024-02-21T01:03:08;205.20;2252.80
70151;DHT22;57517;43.562;19.540;2024-02-21T01:05:34;205.20;2252.80
70151;DHT22;57517;43.562;19.540;2024-02-21T01:08:00;205.30;2252.80
70151;DHT22;57517;43.562;19.540;2024-02-21T01:10:26;205.30;2252.80
70151;DHT22;57517;43.562;19.540;2024-02-21T01:12:51;205.30;2252.80
70151;DHT22;57517;43.562;19.540;2024-02-21T01:15:17;205.30;2252.80
70151;DHT22;57517;43.562;19.540;2024-02-21T01:17:43;205.30;2252.80
70151;DHT22;57517;43.562;19.540;2024-02-21T01:20:09;205.30;2252.80
70151;DHT22;57517;43.562;19.540;2024-02-21T01:22:35;205.20;2252.80
70151;DHT22;57517;43.562;19.540;2024-02-21T01:25:01;205.30;2252.80
70151;DHT22;57517;43.562;19.540;2024-02-21T01:27:27;205.20;2252.80
70151;DHT22;57517;43.562;19.540;2024-02-21T01:29:53;205.10;2252.80
70151;DHT22;57517;43.562;19.540;2024-02-21T01:32:19;205.20;2252.80
70151;DHT22;57517;43.562;19.540;2024-02-21T01:34:45;205.30;2252.80
70151;DHT22;57517;43.562;19.540;2024-02-21T01:37:10;205.40;2252.80
70151;DHT22;57517;43.562;19.540;2024-02-21T01:39:36;205.50;2252.80
70151;DHT22;57517;43.562;19.540;2024-02-21T01:42:02;205.20;2252.80
70151;DHT22;57517;43.562;19.540;2024-02-21T01:44:28;205.10;2252.80
70151;DHT22;57517;43.562;19.540;2024-02-21T01:46:54;205.00;2252.80
70151;DHT22;57517;43.562;19.540;2024-02-21T01:49:21;205.20;2252.80
70151;DHT22;57517;43.562;19.540;2024-02-21T01:51:47;205.30;2252.80
70151;DHT22;57517;43.562;19.540;2024-02-21T01:54:14;205.40;2252.80
70151;DHT22;57517;43.562;19.540;2024-02-21T01:56:41;205.50;2252.80
70151;DHT22;57517;43.562;19.540;2024-02-21T01:59:08;205.50;2252.80
70151;DHT22;57517;43.562;19.540;2024-02-21T02:01:33;205.50;2252.80
70151;DHT22;57517;43.562;19.540;2024-02-21T02:03:59;205.50;2252.80
70151;DHT22;57517;43.562;19.540;2024-02-21T02:06:25;205.50;2252.80
70151;DHT22;57517;43.562;19.540;2024-02-21T02:08:52;205.50;2252.80
70151;DHT22;57517;43.562;19.540;2024-02-21T02:11:17;205.30;2252.80
70151;DHT22;57517;43.562;19.540;2024-02-21T02:13:44;205.30;2252.80
70151;DHT22;57517;43.562;19.540;2024-02-21T02:16:09;205.50;2252.80
70151;DHT22;57517;43.562;19.540;2024-02-21T02:18:35;205.40;2252.80
70151;DHT22;57517;43.562;19.540;2024-02-21T02:21:01;205.60;2252.80
70151;DHT22;57517;43.562;19.540;2024-02-21T02:23:31;205.60;2252.80
70151;DHT22;57517;43.562;19.540;2024-02-21T02:26:00;205.50;2252.80
70151;DHT22;57517;43.562;19.540;2024-02-21T02:28:29;205.50;2252.80
70151;DHT22;57517;43.562;19.540;2024-02-21T02:30:54;205.50;2252.80
70151;DHT22;57517;43.562;19.540;2024-02-21T02:33:20;205.50;2252.80
70151;DHT22;57517;43.562;19.540;2024-02-21T02:35:46;205.50;2252.80
70151;DHT22;57517;43.562;19.540;2024-02-21T02:38:12;205.30;2252.80
70151;DHT22;57517;43.562;19.540;2024-02-21T02:40:39;205.30;2252.80
70151;DHT22;57517;43.562;19.540;2024-02-21T02:43:06;205.30;2252.80
70151;DHT22;57517;43.562;19.540;2024-02-21T02:45:32;205.50;2252.80
70151;DHT22;57517;43.562;19.540;2024-02-21T02:47:58;205.40;2252.80
70151;DHT22;57517;43.562;19.540;2024-02-21T02:50:25;205.50;2252.80
70151;DHT22;57517;43.562;19.540;2024-02-21T02:52:51;205.20;2252.80
70151;DHT22;57517;43.562;19.540;2024-02-21T02:55:17;205.40;2252.80
70151;DHT22;57517;43.562;19.540;2024-02-21T02:57:43;205.50;2252.80
70151;DHT22;57517;43.562;19.540;2024-02-21T03:00:11;205.60;2252.80
70151;DHT22;57517;43.562;19.540;2024-02-21T03:02:39;205.60;2252.80
70151;DHT22;57517;43.562;19.540;2024-02-21T03:05:13;205.60;2252.80
70151;DHT22;57517;43.562;19.540;2024-02-21T03:07:40;205.50;2252.80
70151;DHT22;57517;43.562;19.540;2024-02-21T03:10:06;205.20;2252.80
70151;DHT22;57517;43.562;19.540;2024-02-21T03:12:32;205.00;2252.80
70151;DHT22;57517;43.562;19.540;2024-02-21T03:14:58;205.00;2252.80
70151;DHT22;57517;43.562;19.540;2024-02-21T03:17:25;205.00;2252.80
70151;DHT22;57517;43.562;19.540;2024-02-21T03:19:52;205.20;2252.80
70151;DHT22;57517;43.562;19.540;2024-02-21T03:22:18;205.10;2252.80
70151;DHT22;57517;43.562;19.540;2024-02-21T03:24:44;205.10;2252.80
70151;DHT22;57517;43.562;19.540;2024-02-21T03:27:10;205.30;2252.80
70151;DHT22;57517;43.562;19.540;2024-02-21T03:29:36;205.40;2252.80
70151;DHT22;57517;43.562;19.540;2024-02-21T03:32:02;205.40;2252.80
70151;DHT22;57517;43.562;19.540;2024-02-21T03:34:28;205.40;2252.80
70151;DHT22;57517;43.562;19.540;2024-02-21T03:36:53;205.50;2252.80
70151;DHT22;57517;43.562;19.540;2024-02-21T03:39:19;205.50;2252.80
70151;DHT22;57517;43.562;19.540;2024-02-21T03:41:46;205.30;2252.80
70151;DHT22;57517;43.562;19.540;2024-02-21T03:44:12;205.20;2252.80
70151;DHT22;57517;43.562;19.540;2024-02-21T03:46:38;205.30;2252.80
70151;DHT22;57517;43.562;19.540;2024-02-21T03:49:04;205.30;2252.80
70151;DHT22;57517;43.562;19.540;2024-02-21T03:51:30;205.30;2252.80
70151;DHT22;57517;43.562;19.540;2024-02-21T03:53:55;205.30;2252.80
70151;DHT22;57517;43.562;19.540;2024-02-21T03:56:21;205.30;2252.80
70151;DHT22;57517;43.562;19.540;2024-02-21T03:58:47;205.20;2252.80
70151;DHT22;57517;43.562;19.540;2024-02-21T04:01:15;205.40;2252.80
70151;DHT22;57517;43.562;19.540;2024-02-21T04:03:41;205.00;2252.80
70151;DHT22;57517;43.562;19.540;2024-02-21T04:06:07;205.10;2252.80
70151;DHT22;57517;43.562;19.540;2024-02-21T04:08:33;205.20;2252.80
70151;DHT22;57517;43.562;19.540;2024-02-21T04:10:59;205.00;2252.80
70151;DHT22;57517;43.562;19.540;2024-02-21T04:13:25;205.00;2252.80
70151;DHT22;57517;43.562;19.540;2024-02-21T04:15:51;204.90;2252.80
70151;DHT22;57517;43.562;19.540;2024-02-21T04:18:17;204.90;2252.80
70151;DHT22;57517;43.562;19.540;2024-02-21T04:20:42;180.10;2252.80
70151;DHT22;57517;43.562;19.540;2024-02-21T04:23:09;204.80;2252.80
70151;DHT22;57517;43.562;19.540;2024-02-21T04:25:35;205.00;2252.80
70151;DHT22;57517;43.562;19.540;2024-02-21T04:28:01;205.00;2252.80
70151;DHT22;57517;43.562;19.540;2024-02-21T04:30:26;205.00;2252.80
70151;DHT22;57517;43.562;19.540;2024-02-21T04:32:52;205.00;2252.80
70151;DHT22;57517;43.562;19.540;2024-02-21T04:35:18;204.90;2252.80
70151;DHT22;57517;43.562;19.540;2024-02-21T04:37:44;205.00;2252.80
70151;DHT22;57517;43.562;19.540;2024-02-21T04:40:10;205.20;2252.80
70151;DHT22;57517;43.562;19.540;2024-02-21T04:42:36;205.00;2252.80
70151;DHT22;57517;43.562;19.540;2024-02-21T04:45:02;205.10;2252.80
70151;DHT22;57517;43.562;19.540;2024-02-21T04:47:28;205.10;2252.80
70151;DHT22;57517;43.562;19.540;2024-02-21T04:49:54;205.10;2252.80
70151;DHT22;57517;43.562;19.540;2024-02-21T04:52:20;205.20;2252.80
70151;DHT22;57517;43.562;19.540;2024-02-21T04:54:46;205.20;2252.80
70151;DHT22;57517;43.562;19.540;2024-02-21T04:57:12;205.20;2252.80
70151;DHT22;57517;43.562;19.540;2024-02-21T04:59:43;205.20;2252.80
70151;DHT22;57517;43.562;19.540;2024-02-21T05:02:10;205.40;2252.80
70151;DHT22;57517;43.562;19.540;2024-02-21T05:04:36;205.50;2252.80
70151;DHT22;57517;43.562;19.540;2024-02-21T05:07:04;205.50;2252.80
70151;DHT22;57517;43.562;19.540;2024-02-21T05:09:30;205.50;2252.80
70151;DHT22;57517;43.562;19.540;2024-02-21T05:11:57;205.50;2252.80
70151;DHT22;57517;43.562;19.540;2024-02-21T05:14:25;205.30;2252.80
70151;DHT22;57517;43.562;19.540;2024-02-21T05:16:52;205.20;2252.80
70151;DHT22;57517;43.562;19.540;2024-02-21T05:19:18;205.20;2252.80
70151;DHT22;57517;43.562;19.540;2024-02-21T05:21:44;205.10;2252.80
70151;DHT22;57517;43.562;19.540;2024-02-21T05:24:10;205.10;2252.80
70151;DHT22;57517;43.562;19.540;2024-02-21T05:26:36;205.20;2252.80
70151;DHT22;57517;43.562;19.540;2024-02-21T05:29:01;205.00;2252.80
70151;DHT22;57517;43.562;19.540;2024-02-21T05:34:17;205.10;2252.80
70151;DHT22;57517;43.562;19.540;2024-02-21T05:36:43;205.10;2252.80
70151;DHT22;57517;43.562;19.540;2024-02-21T05:39:10;205.20;2252.80
70151;DHT22;57517;43.562;19.540;2024-02-21T05:41:36;205.20;2252.80
70151;DHT22;57517;43.562;19.540;2024-02-21T05:44:01;205.40;2252.80
70151;DHT22;57517;43.562;19.540;2024-02-21T05:46:27;205.40;2252.80
70151;DHT22;57517;43.562;19.540;2024-02-21T05:48:53;205.30;2252.80
70151;DHT22;57517;43.562;19.540;2024-02-21T05:51:19;205.40;2252.80
70151;DHT22;57517;43.562;19.540;2024-02-21T05:53:45;205.30;2252.80
70151;DHT22;57517;43.562;19.540;2024-02-21T05:56:11;205.10;2252.80
70151;DHT22;57517;43.562;19.540;2024-02-21T05:58:37;205.20;2252.80
70151;DHT22;57517;43.562;19.540;2024-02-21T06:01:03;205.10;2252.80
70151;DHT22;57517;43.562;19.540;2024-02-21T06:03:30;205.10;2252.80
70151;DHT22;57517;43.562;19.540;2024-02-21T06:05:56;205.20;2252.80
70151;DHT22;57517;43.562;19.540;2024-02-21T06:08:22;205.20;2252.80
70151;DHT22;57517;43.562;19.540;2024-02-21T06:10:47;205.30;2252.80
70151;DHT22;57517;43.562;19.540;2024-02-21T06:13:14;205.40;2252.80
70151;DHT22;57517;43.562;19.540;2024-02-21T06:15:40;205.50;2252.80
70151;DHT22;57517;43.562;19.540;2024-02-21T06:18:06;205.60;2252.80
70151;DHT22;57517;43.562;19.540;2024-02-21T06:20:31;205.60;2252.80
70151;DHT22;57517;43.562;19.540;2024-02-21T06:22:57;205.70;2252.80
70151;DHT22;57517;43.562;19.540;2024-02-21T06:25:23;205.70;2252.80
70151;DHT22;57517;43.562;19.540;2024-02-21T06:27:49;205.60;2252.80
70151;DHT22;57517;43.562;19.540;2024-02-21T06:30:15;205.50;2252.80
70151;DHT22;57517;43.562;19.540;2024-02-21T06:32:40;205.50;2252.80
70151;DHT22;57517;43.562;19.540;2024-02-21T06:35:06;205.60;2252.80
70151;DHT22;57517;43.562;19.540;2024-02-21T06:37:32;205.50;2252.80
70151;DHT22;57517;43.562;19.540;2024-02-21T06:39:58;205.40;2252.80
70151;DHT22;57517;43.562;19.540;2024-02-21T06:42:27;205.30;2252.80
70151;DHT22;57517;43.562;19.540;2024-02-21T06:44:53;205.40;2252.80
70151;DHT22;57517;43.562;19.540;2024-02-21T06:47:18;205.50;2252.80
70151;DHT22;57517;43.562;19.540;2024-02-21T06:49:50;205.40;2252.80
70151;DHT22;57517;43.562;19.540;2024-02-21T06:52:18;205.50;2252.80
70151;DHT22;57517;43.562;19.540;2024-02-21T06:54:46;205.40;2252.80
70151;DHT22;57517;43.562;19.540;2024-02-21T06:57:15;205.50;2252.80
70151;DHT22;57517;43.562;19.540;2024-02-21T06:59:41;205.70;2252.80
70151;DHT22;57517;43.562;19.540;2024-02-21T07:02:07;205.50;2252.80
70151;DHT22;57517;43.562;19.540;2024-02-21T07:04:34;205.40;2252.80
70151;DHT22;57517;43.562;19.540;2024-02-21T07:06:59;205.20;2252.80
70151;DHT22;57517;43.562;19.540;2024-02-21T07:09:25;205.20;2252.80
70151;DHT22;57517;43.562;19.540;2024-02-21T07:11:51;205.20;2252.80
70151;DHT22;57517;43.562;19.540;2024-02-21T07:14:18;205.50;2252.80
70151;DHT22;57517;43.562;19.540;2024-02-21T07:16:44;205.60;2252.80
70151;DHT22;57517;43.562;19.540;2024-02-21T07:19:10;205.70;2252.80
70151;DHT22;57517;43.562;19.540;2024-02-21T07:21:35;205.70;2252.80
70151;DHT22;57517;43.562;19.540;2024-02-21T07:24:04;205.70;2252.80
70151;DHT22;57517;43.562;19.540;2024-02-21T07:26:31;205.60;2252.80
70151;DHT22;57517;43.562;19.540;2024-02-21T07:28:57;205.60;2252.80
70151;DHT22;57517;43.562;19.540;2024-02-21T07:31:22;205.70;2252.80
70151;DHT22;57517;43.562;19.540;2024-02-21T07:33:48;205.70;2252.80
70151;DHT22;57517;43.562;19.540;2024-02-21T07:36:15;230.40;2252.80
70151;DHT22;57517;43.562;19.540;2024-02-21T07:38:42;230.40;2252.80
70151;DHT22;57517;43.562;19.540;2024-02-21T07:41:09;230.40;2252.80
70151;DHT22;57517;43.562;19.540;2024-02-21T07:43:35;230.40;2252.80
70151;DHT22;57517;43.562;19.540;2024-02-21T07:46:01;230.40;2252.80
70151;DHT22;57517;43.562;19.540;2024-02-21T07:48:27;230.50;2252.80
70151;DHT22;57517;43.562;19.540;2024-02-21T07:50:53;230.60;2252.80
70151;DHT22;57517;43.562;19.540;2024-02-21T07:53:20;230.80;2252.80
70151;DHT22;57517;43.562;19.540;2024-02-21T07:55:45;230.80;2252.80
70151;DHT22;57517;43.562;19.540;2024-02-21T07:58:11;230.70;2252.80
70151;DHT22;57517;43.562;19.540;2024-02-21T08:00:37;230.90;2252.80
70151;DHT22;57517;43.562;19.540;2024-02-21T08:03:03;230.90;2252.80
70151;DHT22;57517;43.562;19.540;2024-02-21T08:05:29;231.00;2252.80
70151;DHT22;57517;43.562;19.540;2024-02-21T08:07:55;231.10;2252.80
70151;DHT22;57517;43.562;19.540;2024-02-21T08:10:21;231.00;2252.80
70151;DHT22;57517;43.562;19.540;2024-02-21T08:12:47;230.90;2252.80
70151;DHT22;57517;43.562;19.540;2024-02-21T08:15:13;231.00;2252.80
70151;DHT22;57517;43.562;19.540;2024-02-21T08:17:38;230.80;2252.80
70151;DHT22;57517;43.562;19.540;2024-02-21T08:20:05;230.60;2252.80
70151;DHT22;57517;43.562;19.540;2024-02-21T08:22:30;230.70;2252.80
70151;DHT22;57517;43.562;19.540;2024-02-21T08:24:56;230.50;2252.80
70151;DHT22;57517;43.562;19.540;2024-02-21T08:27:22;230.40;2252.80
70151;DHT22;57517;43.562;19.540;2024-02-21T08:29:48;230.50;2252.80
70151;DHT22;57517;43.562;19.540;2024-02-21T08:32:14;230.40;2252.80
70151;DHT22;57517;43.562;19.540;2024-02-21T08:34:40;230.50;2252.80
70151;DHT22;57517;43.562;19.540;2024-02-21T08:37:06;230.50;2252.80
70151;DHT22;57517;43.562;19.540;2024-02-21T08:39:32;230.50;2252.80
70151;DHT22;57517;43.562;19.540;2024-02-21T08:41:57;230.50;2252.80
70151;DHT22;57517;43.562;19.540;2024-02-21T08:44:24;230.60;2252.80
70151;DHT22;57517;43.562;19.540;2024-02-21T08:46:52;230.50;2252.80
70151;DHT22;57517;43.562;19.540;2024-02-21T08:49:18;230.70;2252.80
70151;DHT22;57517;43.562;19.540;2024-02-21T08:51:44;230.80;2252.80
70151;DHT22;57517;43.562;19.540;2024-02-21T08:54:11;230.60;2252.80
70151;DHT22;57517;43.562;19.540;2024-02-21T08:56:36;230.70;2252.80
70151;DHT22;57517;43.562;19.540;2024-02-21T08:59:02;230.80;2252.80
70151;DHT22;57517;43.562;19.540;2024-02-21T09:01:29;230.90;2252.80
70151;DHT22;57517;43.562;19.540;2024-02-21T09:03:55;230.70;2252.80
70151;DHT22;57517;43.562;19.540;2024-02-21T09:06:22;231.00;2252.80
70151;DHT22;57517;43.562;19.540;2024-02-21T09:08:48;231.20;2252.80
70151;DHT22;57517;43.562;19.540;2024-02-21T09:11:14;256.10;2252.80
70151;DHT22;57517;43.562;19.540;2024-02-21T09:13:41;256.50;2252.80
70151;DHT22;57517;43.562;19.540;2024-02-21T09:16:07;256.90;2252.80
70151;DHT22;57517;43.562;19.540;2024-02-21T09:18:34;281.70;2278.40
70151;DHT22;57517;43.562;19.540;2024-02-21T09:21:00;282.00;2252.80
70151;DHT22;57517;43.562;19.540;2024-02-21T09:23:26;307.30;2201.60
70151;DHT22;57517;43.562;19.540;2024-02-21T09:25:52;307.40;2048.00
70151;DHT22;57517;43.562;19.540;2024-02-21T09:28:18;307.70;1996.80
70151;DHT22;57517;43.562;19.540;2024-02-21T09:30:44;333.30;1868.80
70151;DHT22;57517;43.562;19.540;2024-02-21T09:33:11;333.00;1843.20
70151;DHT22;57517;43.562;19.540;2024-02-21T09:35:37;333.70;1792.00
70151;DHT22;57517;43.562;19.540;2024-02-21T09:38:02;358.40;1689.60
70151;DHT22;57517;43.562;19.540;2024-02-21T09:40:28;333.30;1766.40
70151;DHT22;57517;43.562;19.540;2024-02-21T09:43:04;333.00;1792.00
70151;DHT22;57517;43.562;19.540;2024-02-21T09:45:33;308.10;1740.80
70151;DHT22;57517;43.562;19.540;2024-02-21T09:50:50;359.00;1638.40
70151;DHT22;57517;43.562;19.540;2024-02-21T09:53:18;461.60;1331.20
70151;DHT22;57517;43.562;19.540;2024-02-21T09:55:45;615.00;972.80
70151;DHT22;57517;43.562;19.540;2024-02-21T09:58:12;589.10;998.40
70151;DHT22;57517;43.562;19.540;2024-02-21T10:00:39;563.50;1024.00
70151;DHT22;57517;43.562;19.540;2024-02-21T10:03:05;512.70;1075.20
70151;DHT22;57517;43.562;19.540;2024-02-21T10:05:36;537.70;1075.20
70151;DHT22;57517;43.562;19.540;2024-02-21T10:08:03;614.40;972.80
70151;DHT22;57517;43.562;19.540;2024-02-21T10:10:51;614.70;921.60
70151;DHT22;57517;43.562;19.540;2024-02-21T10:13:26;614.60;921.60
70151;DHT22;57517;43.562;19.540;2024-02-21T10:16:02;588.90;972.80
70151;DHT22;57517;43.562;19.540;2024-02-21T10:18:28;538.00;1024.00
70151;DHT22;57517;43.562;19.540;2024-02-21T10:21:07;486.60;1126.40
70151;DHT22;57517;43.562;19.540;2024-02-21T10:23:46;436.00;1203.20
70151;DHT22;57517;43.562;19.540;2024-02-21T10:26:12;410.10;1305.60
70151;DHT22;57517;43.562;19.540;2024-02-21T10:28:38;410.00;1331.20
70151;DHT22;57517;43.562;19.540;2024-02-21T10:31:11;384.70;1356.80
70151;DHT22;57517;43.562;19.540;2024-02-21T10:33:37;384.30;1382.40
70151;DHT22;57517;43.562;19.540;2024-02-21T10:36:10;359.20;1433.60
70151;DHT22;57517;43.562;19.540;2024-02-21T10:38:39;359.20;1433.60
70151;DHT22;57517;43.562;19.540;2024-02-21T10:41:06;359.20;1459.20
70151;DHT22;57517;43.562;19.540;2024-02-21T10:43:40;384.10;1433.60
70151;DHT22;57517;43.562;19.540;2024-02-21T10:46:09;384.10;1433.60
70151;DHT22;57517;43.562;19.540;2024-02-21T10:48:46;359.30;1484.80
70151;DHT22;57517;43.562;19.540;2024-02-21T10:56:21;358.60;1561.60
70151;DHT22;57517;43.562;19.540;2024-02-21T10:58:48;358.60;1536.00
70151;DHT22;57517;43.562;19.540;2024-02-21T11:01:14;358.40;1561.60
70151;DHT22;57517;43.562;19.540;2024-02-21T11:03:48;333.70;1587.20
70151;DHT22;57517;43.562;19.540;2024-02-21T11:06:15;333.50;1612.80
70151;DHT22;57517;43.562;19.540;2024-02-21T11:08:41;333.70;1612.80
70151;DHT22;57517;43.562;19.540;2024-02-21T11:11:07;358.70;1561.60
70151;DHT22;57517;43.562;19.540;2024-02-21T11:13:36;358.80;1561.60
70151;DHT22;57517;43.562;19.540;2024-02-21T11:16:10;359.00;1536.00
70151;DHT22;57517;43.562;19.540;2024-02-21T11:18:37;359.30;1536.00
70151;DHT22;57517;43.562;19.540;2024-02-21T11:21:03;384.10;1510.40
70151;DHT22;57517;43.562;19.540;2024-02-21T11:23:32;384.00;1536.00
70151;DHT22;57517;43.562;19.540;2024-02-21T11:26:08;384.70;1484.80
70151;DHT22;57517;43.562;19.540;2024-02-21T11:28:35;409.80;1484.80
70151;DHT22;57517;43.562;19.540;2024-02-21T11:31:12;409.80;1433.60
70151;DHT22;57517;43.562;19.540;2024-02-21T11:33:42;410.10;1408.00
70151;DHT22;57517;43.562;19.540;2024-02-21T11:36:11;410.40;1382.40
70151;DHT22;57517;43.562;19.540;2024-02-21T11:38:37;435.50;1356.80
70151;DHT22;57517;43.562;19.540;2024-02-21T11:41:03;435.40;1356.80
70151;DHT22;57517;43.562;19.540;2024-02-21T11:43:33;435.30;1356.80
70151;DHT22;57517;43.562;19.540;2024-02-21T11:46:02;410.50;1356.80
70151;DHT22;57517;43.562;19.540;2024-02-21T11:48:30;410.00;1459.20
70151;DHT22;57517;43.562;19.540;2024-02-21T11:50:57;384.30;1536.00
70151;DHT22;57517;43.562;19.540;2024-02-21T11:53:23;384.20;1536.00
70151;DHT22;57517;43.562;19.540;2024-02-21T11:55:49;384.50;1484.80
70151;DHT22;57517;43.562;19.540;2024-02-21T11:58:16;384.80;1484.80
70151;DHT22;57517;43.562;19.540;2024-02-21T12:00:42;384.60;1510.40
70151;DHT22;57517;43.562;19.540;2024-02-21T12:03:08;384.40;1510.40
70151;DHT22;57517;43.562;19.540;2024-02-21T12:05:34;384.40;1510.40
70151;DHT22;57517;43.562;19.540;2024-02-21T12:08:00;384.30;1561.60
70151;DHT22;57517;43.562;19.540;2024-02-21T12:10:26;384.30;1561.60
70151;DHT22;57517;43.562;19.540;2024-02-21T12:13:08;359.20;1561.60
70151;DHT22;57517;43.562;19.540;2024-02-21T12:15:34;358.80;1612.80
70151;DHT22;57517;43.562;19.540;2024-02-21T12:18:00;358.80;1612.80
70151;DHT22;57517;43.562;19.540;2024-02-21T12:20:26;358.60;1638.40
70151;DHT22;57517;43.562;19.540;2024-02-21T12:22:52;333.70;1664.00
70151;DHT22;57517;43.562;19.540;2024-02-21T12:25:21;333.60;1664.00
70151;DHT22;57517;43.562;19.540;2024-02-21T12:27:52;333.70;1664.00
70151;DHT22;57517;43.562;19.540;2024-02-21T12:30:19;333.70;1664.00
70151;DHT22;57517;43.562;19.540;2024-02-21T12:32:46;358.60;1638.40
70151;DHT22;57517;43.562;19.540;2024-02-21T12:35:12;358.80;1612.80
70151;DHT22;57517;43.562;19.540;2024-02-21T12:37:37;358.60;1612.80
70151;DHT22;57517;43.562;19.540;2024-02-21T12:40:05;358.60;1587.20
70151;DHT22;57517;43.562;19.540;2024-02-21T12:42:33;358.60;1561.60
70151;DHT22;57517;43.562;19.540;2024-02-21T12:44:59;358.60;1561.60
70151;DHT22;57517;43.562;19.540;2024-02-21T12:47:25;359.00;1510.40
70151;DHT22;57517;43.562;19.540;2024-02-21T12:49:52;358.40;1510.40
70151;DHT22;57517;43.562;19.540;2024-02-21T12:52:18;333.60;1510.40
70151;DHT22;57517;43.562;19.540;2024-02-21T12:54:44;333.70;1510.40
70151;DHT22;57517;43.562;19.540;2024-02-21T12:57:10;358.40;1510.40
70151;DHT22;57517;43.562;19.540;2024-02-21T12:59:36;358.60;1510.40
70151;DHT22;57517;43.562;19.540;2024-02-21T13:02:02;358.40;1510.40
70151;DHT22;57517;43.562;19.540;2024-02-21T13:04:28;358.50;1536.00
70151;DHT22;57517;43.562;19.540;2024-02-21T13:06:54;358.40;1561.60
70151;DHT22;57517;43.562;19.540;2024-02-21T13:09:20;333.70;1561.60
70151;DHT22;57517;43.562;19.540;2024-02-21T13:11:46;333.70;1587.20
70151;DHT22;57517;43.562;19.540;2024-02-21T13:14:12;358.40;1587.20
70151;DHT22;57517;43.562;19.540;2024-02-21T13:16:38;358.40;1561.60
70151;DHT22;57517;43.562;19.540;2024-02-21T13:19:07;358.40;1536.00
70151;DHT22;57517;43.562;19.540;2024-02-21T13:21:34;333.70;1510.40
70151;DHT22;57517;43.562;19.540;2024-02-21T13:24:01;358.40;1484.80
70151;DHT22;57517;43.562;19.540;2024-02-21T13:26:26;358.40;1484.80
70151;DHT22;57517;43.562;19.540;2024-02-21T13:28:53;333.40;1510.40
70151;DHT22;57517;43.562;19.540;2024-02-21T13:31:19;333.40;1536.00
70151;DHT22;57517;43.562;19.540;2024-02-21T13:33:45;333.50;1536.00
70151;DHT22;57517;43.562;19.540;2024-02-21T13:36:11;333.40;1536.00
70151;DHT22;57517;43.562;19.540;2024-02-21T13:38:38;333.30;1510.40
70151;DHT22;57517;43.562;19.540;2024-02-21T13:41:06;333.40;1536.00
70151;DHT22;57517;43.562;19.540;2024-02-21T13:43:33;333.50;1510.40
70151;DHT22;57517;43.562;19.540;2024-02-21T13:46:00;333.50;1510.40
70151;DHT22;57517;43.562;19.540;2024-02-21T13:48:32;333.40;1536.00
70151;DHT22;57517;43.562;19.540;2024-02-21T13:50:58;333.30;1561.60
70151;DHT22;57517;43.562;19.540;2024-02-21T13:53:24;333.20;1587.20
70151;DHT22;57517;43.562;19.540;2024-02-21T13:55:50;333.10;1612.80
70151;DHT22;57517;43.562;19.540;2024-02-21T13:58:16;333.20;1612.80
70151;DHT22;57517;43.562;19.540;2024-02-21T14:00:43;332.90;1638.40
70151;DHT22;57517;43.562;19.540;2024-02-21T14:03:08;333.10;1664.00
70151;DHT22;57517;43.562;19.540;2024-02-21T14:05:35;333.00;1664.00
70151;DHT22;57517;43.562;19.540;2024-02-21T14:08:01;333.10;1638.40
70151;DHT22;57517;43.562;19.540;2024-02-21T14:10:26;333.00;1689.60
70151;DHT22;57517;43.562;19.540;2024-02-21T14:12:53;333.10;1664.00
70151;DHT22;57517;43.562;19.540;2024-02-21T14:15:21;333.20;1664.00
70151;DHT22;57517;43.562;19.540;2024-02-21T14:17:47;333.30;1638.40
70151;DHT22;57517;43.562;19.540;2024-02-21T14:20:13;333.30;1638.40
70151;DHT22;57517;43.562;19.540;2024-02-21T14:22:42;333.30;1638.40
70151;DHT22;57517;43.562;19.540;2024-02-21T14:25:08;333.30;1612.80
70151;DHT22;57517;43.562;19.540;2024-02-21T14:27:34;333.30;1612.80
70151;DHT22;57517;43.562;19.540;2024-02-21T14:30:02;333.20;1612.80
70151;DHT22;57517;43.562;19.540;2024-02-21T14:32:28;333.10;1612.80
70151;DHT22;57517;43.562;19.540;2024-02-21T14:34:54;333.20;1612.80
70151;DHT22;57517;43.562;19.540;2024-02-21T14:37:20;333.10;1638.40
70151;DHT22;57517;43.562;19.540;2024-02-21T14:39:47;333.10;1638.40
70151;DHT22;57517;43.562;19.540;2024-02-21T14:42:13;333.10;1638.40
70151;DHT22;57517;43.562;19.540;2024-02-21T14:44:38;333.00;1638.40